Terminal Aerodrome Forecast
Issued by NWS

Home | Current Version | Previous Version | Graphics & Text | Print | Product List | Glossary On
Versions: 1 2 3 4 5 6 7 8 9 10 11 12 13 14 15
000
FTUS43 KICT 021729
TAFHUT
TAF
KHUT 021729Z 0218/0318 21014G19KT P6SM FEW060
     FM030100 18006KT P6SM SCT250
     FM031200 20005KT P6SM SCT250=

USA.gov is the U.S. government's official web portal to all federal, state and local government web resources and services.